createdAt,value
2018-10-18T00:00:59.609Z,0.00
2018-10-18T00:01:59.638Z,0.00
2018-10-18T00:02:59.583Z,0.00
2018-10-18T00:03:59.577Z,0.00
2018-10-18T00:04:59.519Z,0.00
2018-10-18T00:05:59.579Z,0.00
2018-10-18T00:06:59.700Z,0.00
2018-10-18T00:07:59.566Z,0.00
2018-10-18T00:08:59.515Z,0.00
2018-10-18T00:09:59.505Z,0.00
2018-10-18T00:10:59.494Z,0.00
2018-10-18T00:11:59.466Z,0.00
2018-10-18T00:12:59.489Z,0.00
2018-10-18T00:13:59.519Z,0.00
2018-10-18T00:14:59.406Z,0.00
2018-10-18T00:15:59.439Z,0.00
2018-10-18T00:16:59.449Z,0.00
2018-10-18T00:17:59.468Z,0.00
2018-10-18T00:18:59.403Z,0.00
2018-10-18T00:19:59.446Z,0.00
2018-10-18T00:20:59.389Z,0.00
2018-10-18T00:21:59.394Z,0.00
2018-10-18T00:22:59.362Z,0.00
2018-10-18T00:23:59.392Z,0.00
2018-10-18T00:24:59.340Z,0.00
2018-10-18T00:25:59.374Z,0.00
2018-10-18T00:26:59.350Z,0.00
2018-10-18T00:27:59.263Z,0.00
2018-10-18T00:28:59.298Z,0.00
2018-10-18T00:29:59.315Z,0.00
2018-10-18T00:30:59.279Z,0.00
2018-10-18T00:31:59.343Z,0.00
2018-10-18T00:32:59.259Z,0.00
2018-10-18T00:33:59.210Z,0.00
2018-10-18T00:34:59.198Z,0.00
2018-10-18T00:35:59.238Z,0.00
2018-10-18T00:36:59.230Z,0.00
2018-10-18T00:37:59.227Z,0.00
2018-10-18T00:38:59.194Z,0.00
2018-10-18T00:39:59.176Z,0.00
2018-10-18T00:40:59.164Z,0.00
2018-10-18T00:41:59.184Z,0.00
2018-10-18T00:42:59.139Z,0.00
2018-10-18T00:43:59.190Z,0.00
2018-10-18T00:44:59.127Z,0.00
2018-10-18T00:45:59.151Z,0.00
2018-10-18T00:46:59.131Z,0.00
2018-10-18T00:47:59.139Z,0.00
2018-10-18T00:48:59.075Z,0.00
2018-10-18T00:49:59.039Z,0.00
2018-10-18T00:50:59.055Z,0.00
2018-10-18T00:51:59.070Z,0.00
2018-10-18T00:52:59.034Z,0.00
2018-10-18T00:53:59.041Z,0.00
2018-10-18T00:54:59.008Z,0.00
2018-10-18T00:55:59.008Z,0.00
2018-10-18T00:56:59.014Z,0.00
2018-10-18T00:57:58.979Z,0.00
2018-10-18T00:58:58.969Z,0.00
2018-10-18T00:59:58.980Z,0.00
2018-10-18T01:00:58.899Z,0.00
2018-10-18T01:01:58.968Z,0.00
2018-10-18T01:02:58.925Z,0.00
2018-10-18T01:03:58.909Z,0.00
2018-10-18T01:04:58.899Z,0.00
2018-10-18T01:05:58.904Z,0.00
2018-10-18T01:06:58.899Z,0.00
2018-10-18T01:07:58.882Z,0.00
2018-10-18T01:08:58.870Z,0.00
2018-10-18T01:09:58.842Z,0.00
2018-10-18T01:10:58.834Z,0.00
2018-10-18T01:11:58.895Z,0.00
2018-10-18T01:12:58.809Z,0.00
2018-10-18T01:13:58.837Z,0.00
2018-10-18T01:14:58.800Z,0.00
2018-10-18T01:15:58.776Z,0.00
2018-10-18T01:16:58.787Z,0.00
2018-10-18T01:17:58.770Z,0.00
2018-10-18T01:18:58.746Z,0.00
2018-10-18T01:19:58.787Z,0.00
2018-10-18T01:20:58.725Z,0.00
2018-10-18T01:21:58.685Z,0.00
2018-10-18T01:22:58.698Z,0.00
2018-10-18T01:23:58.697Z,0.00
2018-10-18T01:24:58.637Z,0.00
2018-10-18T01:25:58.705Z,0.00
2018-10-18T01:26:58.793Z,0.00
2018-10-18T01:27:58.605Z,0.00
2018-10-18T01:28:58.595Z,0.00
2018-10-18T01:29:58.651Z,0.00
2018-10-18T01:30:58.618Z,0.00
2018-10-18T01:31:58.649Z,0.00
2018-10-18T01:32:58.599Z,0.00
2018-10-18T01:33:58.579Z,0.00
2018-10-18T01:34:58.568Z,0.00
2018-10-18T01:35:58.616Z,0.00
2018-10-18T01:36:58.721Z,0.00
2018-10-18T01:37:58.538Z,0.00
2018-10-18T01:38:58.575Z,0.00
2018-10-18T01:39:58.470Z,0.00
2018-10-18T01:40:58.501Z,0.00
2018-10-18T01:41:58.493Z,0.00
2018-10-18T01:42:58.779Z,0.00
2018-10-18T01:43:58.445Z,0.00
2018-10-18T01:44:58.460Z,0.00
2018-10-18T01:45:58.449Z,0.00
2018-10-18T01:46:58.438Z,0.00
2018-10-18T01:47:58.472Z,0.00
2018-10-18T01:48:58.416Z,0.00
2018-10-18T01:49:58.408Z,0.00
2018-10-18T01:50:58.393Z,0.00
2018-10-18T01:51:58.381Z,0.00
2018-10-18T01:52:58.420Z,0.00
2018-10-18T01:53:58.394Z,0.00
2018-10-18T01:54:58.349Z,0.00
2018-10-18T01:55:58.379Z,0.00
2018-10-18T01:56:58.336Z,0.00
2018-10-18T01:57:58.339Z,0.00
2018-10-18T01:58:58.315Z,0.00
2018-10-18T01:59:58.325Z,0.00
2018-10-18T02:00:58.281Z,0.00
2018-10-18T02:01:58.322Z,0.00
2018-10-18T02:02:58.235Z,0.00
2018-10-18T02:03:58.247Z,0.00
2018-10-18T02:04:58.239Z,0.00
2018-10-18T02:05:58.274Z,0.00
2018-10-18T02:06:58.213Z,0.00
2018-10-18T02:07:58.229Z,0.00
2018-10-18T02:08:58.195Z,0.00
2018-10-18T02:09:58.184Z,0.00
2018-10-18T02:10:58.184Z,0.00
2018-10-18T02:11:58.166Z,0.00
2018-10-18T02:12:58.133Z,0.00
2018-10-18T02:13:58.103Z,0.00
2018-10-18T02:14:58.124Z,0.00
2018-10-18T02:15:58.129Z,0.00
2018-10-18T02:16:58.109Z,0.00
2018-10-18T02:17:58.156Z,0.00
2018-10-18T02:18:58.108Z,0.00
2018-10-18T02:19:58.071Z,0.00
2018-10-18T02:20:58.065Z,0.00
2018-10-18T02:21:58.062Z,0.00
2018-10-18T02:22:58.069Z,0.00
2018-10-18T02:23:58.084Z,0.00
2018-10-18T02:24:58.069Z,0.00
2018-10-18T02:25:57.973Z,0.00
2018-10-18T02:26:57.999Z,0.00
2018-10-18T02:27:58.008Z,0.00
2018-10-18T02:28:57.985Z,0.00
2018-10-18T02:29:57.993Z,0.00
2018-10-18T02:30:57.958Z,0.00
2018-10-18T02:31:57.907Z,0.00
2018-10-18T02:32:57.958Z,0.00
2018-10-18T02:33:57.925Z,0.00
2018-10-18T02:34:57.873Z,0.00
2018-10-18T02:35:58.001Z,0.00
2018-10-18T02:36:57.914Z,0.00
2018-10-18T02:37:57.885Z,0.00
2018-10-18T02:38:57.888Z,0.00
2018-10-18T02:39:57.857Z,0.00
2018-10-18T02:40:57.855Z,0.00
2018-10-18T02:41:57.870Z,0.00
2018-10-18T02:42:57.825Z,0.00
2018-10-18T02:43:57.840Z,0.00
2018-10-18T02:44:57.804Z,0.00
2018-10-18T02:45:57.794Z,0.00
2018-10-18T02:46:57.785Z,0.00
2018-10-18T02:47:57.780Z,0.00
2018-10-18T02:48:57.780Z,0.00
2018-10-18T02:49:57.755Z,0.00
2018-10-18T02:50:57.738Z,0.00
2018-10-18T02:51:57.731Z,0.00
2018-10-18T02:52:57.725Z,0.00
2018-10-18T02:53:57.735Z,0.00
2018-10-18T02:54:57.695Z,0.00
2018-10-18T02:55:57.689Z,0.00
2018-10-18T02:56:57.671Z,0.00
2018-10-18T02:57:57.667Z,0.00
2018-10-18T02:58:57.628Z,0.00
2018-10-18T02:59:57.645Z,0.00
2018-10-18T03:00:57.633Z,0.00
2018-10-18T03:01:57.625Z,0.00
2018-10-18T03:02:57.611Z,0.00
2018-10-18T03:03:57.617Z,0.00
2018-10-18T03:04:57.586Z,0.00
2018-10-18T03:05:57.625Z,0.00
2018-10-18T03:06:57.564Z,0.00
2018-10-18T03:07:57.568Z,0.00
2018-10-18T03:08:57.572Z,0.00
2018-10-18T03:09:57.531Z,0.00
2018-10-18T03:10:57.524Z,0.00
2018-10-18T03:11:57.523Z,0.00
2018-10-18T03:12:57.507Z,0.00
2018-10-18T03:13:57.520Z,0.00
2018-10-18T03:14:57.489Z,0.00
2018-10-18T03:15:57.517Z,0.00
2018-10-18T03:16:57.461Z,0.00
2018-10-18T03:17:57.499Z,0.00
2018-10-18T03:18:57.457Z,0.00
2018-10-18T03:19:57.388Z,0.00
2018-10-18T03:20:57.416Z,0.00
2018-10-18T03:21:57.406Z,0.00
2018-10-18T03:22:57.400Z,0.00
2018-10-18T03:23:57.409Z,0.00
2018-10-18T03:24:57.332Z,0.00
2018-10-18T03:25:57.360Z,0.00
2018-10-18T03:26:57.367Z,0.00
2018-10-18T03:27:57.350Z,0.00
2018-10-18T03:28:57.533Z,0.00
2018-10-18T03:29:57.369Z,0.00
2018-10-18T03:30:57.311Z,0.00
2018-10-18T03:31:57.297Z,0.00
2018-10-18T03:32:57.288Z,0.00
2018-10-18T03:33:57.364Z,0.00
2018-10-18T03:34:57.265Z,0.00
2018-10-18T03:35:57.372Z,0.00
2018-10-18T03:36:57.239Z,0.00
2018-10-18T03:37:57.237Z,0.00
2018-10-18T03:38:57.312Z,0.00
2018-10-18T03:39:57.211Z,0.00
2018-10-18T03:40:57.195Z,0.00
2018-10-18T03:41:57.244Z,0.00
2018-10-18T03:42:57.179Z,0.00
2018-10-18T03:43:57.192Z,0.00
2018-10-18T03:44:57.206Z,0.00
2018-10-18T03:45:57.137Z,0.00
2018-10-18T03:46:57.131Z,0.00
2018-10-18T03:47:57.133Z,0.00
2018-10-18T03:48:57.147Z,0.00
2018-10-18T03:49:57.112Z,0.00
2018-10-18T03:50:57.088Z,0.00
2018-10-18T03:51:57.078Z,0.00
2018-10-18T03:52:57.072Z,0.00
2018-10-18T03:53:57.084Z,0.00
2018-10-18T03:54:57.049Z,0.00
2018-10-18T03:55:57.041Z,0.00
2018-10-18T03:56:57.025Z,0.00
2018-10-18T03:57:57.010Z,0.00
2018-10-18T03:58:57.010Z,0.00
2018-10-18T03:59:57.024Z,0.00
2018-10-18T04:00:56.980Z,0.00
2018-10-18T04:01:56.982Z,0.00
2018-10-18T04:02:56.955Z,0.00
2018-10-18T04:03:56.950Z,0.00
2018-10-18T04:04:56.955Z,0.00
2018-10-18T04:05:56.970Z,0.00
2018-10-18T04:06:56.924Z,0.00
2018-10-18T04:07:56.923Z,0.00
2018-10-18T04:08:56.896Z,0.00
2018-10-18T04:09:56.908Z,0.00
2018-10-18T04:10:56.870Z,0.00
2018-10-18T04:11:56.876Z,0.00
2018-10-18T04:12:56.912Z,0.00
2018-10-18T04:13:56.839Z,0.00
2018-10-18T04:14:56.862Z,0.00
2018-10-18T04:15:56.820Z,0.00
2018-10-18T04:16:56.808Z,0.00
2018-10-18T04:17:56.827Z,0.00
2018-10-18T04:18:56.791Z,0.00
2018-10-18T04:19:56.795Z,0.00
2018-10-18T04:20:56.759Z,0.00
2018-10-18T04:21:56.720Z,0.00
2018-10-18T04:22:56.752Z,0.00
2018-10-18T04:23:56.774Z,0.00
2018-10-18T04:24:56.739Z,0.00
2018-10-18T04:25:56.712Z,0.00
2018-10-18T04:26:56.693Z,0.00
2018-10-18T04:27:56.656Z,0.00
2018-10-18T04:28:56.684Z,0.00
2018-10-18T04:29:56.740Z,0.00
2018-10-18T04:30:56.648Z,0.00
2018-10-18T04:31:56.605Z,0.00
2018-10-18T04:32:56.633Z,0.00
2018-10-18T04:33:56.627Z,0.00
2018-10-18T04:34:56.627Z,0.00
2018-10-18T04:35:56.660Z,0.00
2018-10-18T04:36:56.593Z,0.00
2018-10-18T04:37:56.610Z,0.00
2018-10-18T04:38:56.563Z,0.00
2018-10-18T04:39:56.577Z,0.00
2018-10-18T04:40:56.548Z,0.00
2018-10-18T04:41:56.540Z,0.00
2018-10-18T04:42:56.520Z,0.00
2018-10-18T04:43:56.520Z,0.00
2018-10-18T04:44:56.522Z,0.00
2018-10-18T04:45:56.493Z,0.00
2018-10-18T04:46:56.484Z,0.00
2018-10-18T04:47:56.539Z,0.00
2018-10-18T04:48:56.535Z,0.00
2018-10-18T04:49:56.459Z,0.00
2018-10-18T04:50:56.437Z,0.00
2018-10-18T04:51:56.421Z,0.00
2018-10-18T04:52:56.411Z,0.00
2018-10-18T04:53:56.403Z,0.00
2018-10-18T04:54:56.472Z,0.00
2018-10-18T04:55:56.387Z,0.00
2018-10-18T04:56:56.416Z,0.00
2018-10-18T04:57:56.356Z,0.00
2018-10-18T04:58:56.298Z,0.00
2018-10-18T04:59:56.360Z,0.00
2018-10-18T05:00:56.341Z,0.00
2018-10-18T05:01:56.313Z,0.00
2018-10-18T05:02:56.319Z,0.00
2018-10-18T05:03:56.294Z,0.00
2018-10-18T05:04:56.382Z,0.00
2018-10-18T05:05:56.272Z,0.00
2018-10-18T05:06:56.226Z,0.00
2018-10-18T05:07:56.247Z,0.00
2018-10-18T05:08:56.238Z,0.00
2018-10-18T05:09:56.254Z,0.00
2018-10-18T05:10:56.212Z,0.00
2018-10-18T05:11:56.208Z,0.00
2018-10-18T05:12:56.201Z,0.00
2018-10-18T05:13:56.189Z,0.00
2018-10-18T05:14:56.194Z,0.00
2018-10-18T05:15:56.161Z,0.00
2018-10-18T05:16:56.153Z,0.00
2018-10-18T05:17:56.165Z,0.00
2018-10-18T05:18:56.142Z,0.00
2018-10-18T05:19:56.125Z,0.00
2018-10-18T05:20:56.231Z,0.00
2018-10-18T05:21:56.097Z,0.00
2018-10-18T05:22:56.062Z,0.00
2018-10-18T05:23:56.080Z,0.00
2018-10-18T05:24:56.054Z,0.00
2018-10-18T05:25:56.051Z,0.00
2018-10-18T05:26:55.998Z,0.00
2018-10-18T05:27:56.047Z,0.00
2018-10-18T05:28:56.025Z,0.00
2018-10-18T05:29:56.008Z,0.00
2018-10-18T05:30:55.984Z,0.00
2018-10-18T05:31:55.992Z,0.00
2018-10-18T05:32:55.996Z,4.00
2018-10-18T05:33:55.980Z,4.00
2018-10-18T05:34:55.964Z,0.00
2018-10-18T05:35:55.900Z,0.00
2018-10-18T05:36:55.909Z,4.00
2018-10-18T05:37:55.936Z,4.00
2018-10-18T05:38:55.910Z,4.00
2018-10-18T05:39:55.896Z,4.00
2018-10-18T05:40:55.894Z,4.00
2018-10-18T05:41:55.838Z,4.00
2018-10-18T05:42:55.938Z,8.00
2018-10-18T05:43:55.855Z,8.00
2018-10-18T05:44:55.852Z,8.00
2018-10-18T05:45:55.807Z,12.00
2018-10-18T05:46:55.827Z,16.00
2018-10-18T05:47:55.839Z,12.00
2018-10-18T05:48:55.833Z,20.00
2018-10-18T05:49:55.767Z,20.00
2018-10-18T05:50:55.782Z,24.00
2018-10-18T05:51:55.771Z,28.00
2018-10-18T05:52:55.766Z,32.00
2018-10-18T05:53:55.890Z,32.00
2018-10-18T05:54:55.810Z,36.00
2018-10-18T05:55:55.735Z,40.00
2018-10-18T05:56:55.714Z,44.00
2018-10-18T05:57:55.705Z,52.00
2018-10-18T05:58:55.676Z,56.00
2018-10-18T05:59:55.681Z,60.00
2018-10-18T06:00:55.732Z,68.00
2018-10-18T06:01:55.680Z,84.00
2018-10-18T06:02:55.652Z,92.00
2018-10-18T06:03:55.664Z,108.00
2018-10-18T06:04:55.627Z,124.00
2018-10-18T06:05:55.624Z,144.00
2018-10-18T06:06:55.621Z,160.00
2018-10-18T06:07:55.599Z,184.00
2018-10-18T06:08:55.612Z,208.00
2018-10-18T06:09:55.606Z,236.00
2018-10-18T06:10:55.566Z,252.00
2018-10-18T06:11:55.560Z,276.00
2018-10-18T06:12:55.547Z,304.00
2018-10-18T06:13:55.565Z,324.00
2018-10-18T06:14:55.522Z,352.00
2018-10-18T06:15:55.507Z,356.00
2018-10-18T06:16:55.501Z,376.00
2018-10-18T06:17:55.447Z,392.00
2018-10-18T06:18:55.550Z,400.00
2018-10-18T06:19:55.423Z,428.00
2018-10-18T06:20:55.454Z,456.00
2018-10-18T06:21:55.445Z,488.00
2018-10-18T06:22:55.480Z,520.00
2018-10-18T06:23:55.576Z,600.00
2018-10-18T06:24:55.452Z,688.00
2018-10-18T06:25:55.397Z,740.00
2018-10-18T06:26:55.386Z,788.00
2018-10-18T06:27:55.374Z,816.00
2018-10-18T06:28:55.410Z,796.00
2018-10-18T06:29:55.355Z,792.00
2018-10-18T06:30:55.398Z,784.00
2018-10-18T06:31:55.331Z,768.00
2018-10-18T06:32:55.325Z,784.00
2018-10-18T06:33:55.436Z,808.00
2018-10-18T06:34:55.334Z,820.00
2018-10-18T06:35:55.285Z,832.00
2018-10-18T06:36:55.350Z,848.00
2018-10-18T06:37:55.279Z,864.00
2018-10-18T06:38:55.297Z,956.00
2018-10-18T06:39:55.271Z,1028.00
2018-10-18T06:40:55.263Z,1060.00
2018-10-18T06:41:55.220Z,1072.00
2018-10-18T06:42:55.226Z,1112.00
2018-10-18T06:43:55.237Z,1036.00
2018-10-18T06:44:55.194Z,996.00
2018-10-18T06:45:55.185Z,988.00
2018-10-18T06:46:55.227Z,1016.00
2018-10-18T06:47:55.337Z,1084.00
2018-10-18T06:48:55.234Z,1028.00
2018-10-18T06:49:55.148Z,916.00
2018-10-18T06:50:55.120Z,880.00
2018-10-18T06:51:55.108Z,880.00
2018-10-18T06:52:55.099Z,968.00
2018-10-18T06:53:55.133Z,1116.00
2018-10-18T06:54:55.110Z,1164.00
2018-10-18T06:55:55.068Z,1116.00
2018-10-18T06:56:55.058Z,1168.00
2018-10-18T06:57:55.045Z,1248.00
2018-10-18T06:58:55.055Z,1184.00
2018-10-18T06:59:55.074Z,1208.00
2018-10-18T07:00:55.024Z,1376.00
2018-10-18T07:01:55.010Z,1424.00
2018-10-18T07:02:55.003Z,1360.00
2018-10-18T07:03:55.012Z,1436.00
2018-10-18T07:04:54.919Z,1656.00
2018-10-18T07:05:54.970Z,1856.00
2018-10-18T07:06:54.940Z,2172.00
2018-10-18T07:07:54.885Z,2364.00
2018-10-18T07:08:55.056Z,2580.00
2018-10-18T07:09:54.909Z,2684.00
2018-10-18T07:10:54.997Z,2676.00
2018-10-18T07:11:54.922Z,2596.00
2018-10-18T07:12:54.893Z,2664.00
2018-10-18T07:13:54.893Z,2808.00
2018-10-18T07:14:54.867Z,2892.00
2018-10-18T07:15:54.854Z,2908.00
2018-10-18T07:16:54.834Z,3012.00
2018-10-18T07:17:54.841Z,3276.00
2018-10-18T07:18:54.830Z,3440.00
2018-10-18T07:19:54.802Z,3496.00
2018-10-18T07:20:54.799Z,3416.00
2018-10-18T07:21:54.783Z,3296.00
2018-10-18T07:22:54.731Z,3152.00
2018-10-18T07:23:54.782Z,3072.00
2018-10-18T07:24:54.722Z,3080.00
2018-10-18T07:25:54.734Z,3252.00
2018-10-18T07:26:54.813Z,3492.00
2018-10-18T07:27:54.708Z,3700.00
2018-10-18T07:28:54.713Z,3764.00
2018-10-18T07:29:54.734Z,3724.00
2018-10-18T07:30:54.677Z,3716.00
2018-10-18T07:31:54.666Z,3844.00
2018-10-18T07:32:54.614Z,3972.00
2018-10-18T07:33:54.624Z,4160.00
2018-10-18T07:34:54.737Z,4404.00
2018-10-18T07:35:54.668Z,4740.00
2018-10-18T07:36:54.609Z,5136.00
2018-10-18T07:37:54.613Z,5540.00
2018-10-18T07:38:54.594Z,5908.00
2018-10-18T07:39:54.595Z,6196.00
2018-10-18T07:40:54.564Z,6416.00
2018-10-18T07:41:54.555Z,6432.00
2018-10-18T07:42:54.571Z,6208.00
2018-10-18T07:43:54.537Z,6260.00
2018-10-18T07:44:54.557Z,6556.00
2018-10-18T07:45:54.509Z,6944.00
2018-10-18T07:46:54.588Z,7152.00
2018-10-18T07:47:54.458Z,7100.00
2018-10-18T07:48:54.498Z,6944.00
2018-10-18T07:49:54.491Z,6708.00
2018-10-18T07:50:54.450Z,6596.00
2018-10-18T07:51:54.445Z,6628.00
2018-10-18T07:52:54.499Z,6696.00
2018-10-18T07:53:54.443Z,6768.00
2018-10-18T07:54:54.434Z,6824.00
2018-10-18T07:55:54.416Z,6936.00
2018-10-18T07:56:54.399Z,7116.00
2018-10-18T07:57:54.378Z,7288.00
2018-10-18T07:58:54.325Z,7280.00
2018-10-18T07:59:54.391Z,6952.00
2018-10-18T08:00:54.420Z,6524.00
2018-10-18T08:01:54.332Z,6356.00
2018-10-18T08:02:54.281Z,6392.00
2018-10-18T08:03:54.319Z,6560.00
2018-10-18T08:04:54.330Z,6724.00
2018-10-18T08:05:54.292Z,6704.00
2018-10-18T08:06:54.304Z,6348.00
2018-10-18T08:07:54.272Z,5872.00
2018-10-18T08:08:54.258Z,5684.00
2018-10-18T08:09:54.286Z,5828.00
2018-10-18T08:10:54.284Z,6212.00
2018-10-18T08:11:54.227Z,6540.00
2018-10-18T08:12:54.227Z,6796.00
2018-10-18T08:13:54.209Z,6996.00
2018-10-18T08:14:54.230Z,7088.00
2018-10-18T08:15:54.216Z,6984.00
2018-10-18T08:16:54.204Z,6764.00
2018-10-18T08:17:54.159Z,6536.00
2018-10-18T08:18:54.186Z,6080.00
2018-10-18T08:19:54.101Z,5680.00
2018-10-18T08:20:54.175Z,5504.00
2018-10-18T08:21:54.107Z,5304.00
2018-10-18T08:22:54.109Z,5268.00
2018-10-18T08:23:54.100Z,5664.00
2018-10-18T08:24:54.129Z,5988.00
2018-10-18T08:25:54.199Z,6136.00
2018-10-18T08:26:54.059Z,6440.00
2018-10-18T08:27:54.047Z,6868.00
2018-10-18T08:28:54.051Z,7244.00
2018-10-18T08:29:53.985Z,7300.00
2018-10-18T08:30:54.096Z,7140.00
2018-10-18T08:31:54.076Z,7072.00
2018-10-18T08:32:53.997Z,7216.00
2018-10-18T08:33:53.942Z,7316.00
2018-10-18T08:34:53.969Z,7156.00
2018-10-18T08:35:54.022Z,6796.00
2018-10-18T08:36:53.973Z,6236.00
2018-10-18T08:37:54.113Z,5820.00
2018-10-18T08:38:53.937Z,5644.00
2018-10-18T08:39:53.927Z,5656.00
2018-10-18T08:40:53.932Z,5684.00
2018-10-18T08:41:53.906Z,5760.00
2018-10-18T08:42:53.935Z,6020.00
2018-10-18T08:43:54.003Z,6448.00
2018-10-18T08:44:53.866Z,6956.00
2018-10-18T08:45:53.829Z,7428.00
2018-10-18T08:46:53.839Z,7580.00
2018-10-18T08:47:53.831Z,7260.00
2018-10-18T08:48:53.789Z,6820.00
2018-10-18T08:49:53.910Z,6612.00
2018-10-18T08:50:53.817Z,6692.00
2018-10-18T08:51:53.784Z,6948.00
2018-10-18T08:52:53.778Z,7380.00
2018-10-18T08:53:53.763Z,7696.00
2018-10-18T08:54:53.804Z,7744.00
2018-10-18T08:55:53.763Z,7436.00
2018-10-18T08:56:53.727Z,7168.00
2018-10-18T08:57:53.728Z,7116.00
2018-10-18T08:58:53.736Z,7168.00
2018-10-18T08:59:53.700Z,7332.00
2018-10-18T09:00:53.729Z,7632.00
2018-10-18T09:01:53.631Z,7896.00
2018-10-18T09:02:53.666Z,7964.00
2018-10-18T09:03:53.657Z,7748.00
2018-10-18T09:04:53.656Z,7296.00
2018-10-18T09:05:53.658Z,6804.00
2018-10-18T09:06:53.651Z,6472.00
2018-10-18T09:07:53.616Z,6168.00
2018-10-18T09:08:53.620Z,6124.00
2018-10-18T09:09:53.593Z,6080.00
2018-10-18T09:10:53.611Z,6048.00
2018-10-18T09:11:53.586Z,6248.00
2018-10-18T09:12:53.576Z,6472.00
2018-10-18T09:13:53.567Z,6652.00
2018-10-18T09:14:53.544Z,6808.00
2018-10-18T09:15:53.578Z,6764.00
2018-10-18T09:16:53.526Z,6592.00
2018-10-18T09:17:53.507Z,6472.00
2018-10-18T09:18:53.540Z,6508.00
2018-10-18T09:19:53.484Z,6480.00
2018-10-18T09:20:53.506Z,6396.00
2018-10-18T09:21:53.465Z,6324.00
2018-10-18T09:22:53.529Z,6316.00
2018-10-18T09:23:53.655Z,6276.00
2018-10-18T09:24:53.405Z,6020.00
2018-10-18T09:25:53.450Z,5564.00
2018-10-18T09:26:53.411Z,5048.00
2018-10-18T09:27:53.402Z,4800.00
2018-10-18T09:28:53.421Z,4876.00
2018-10-18T09:29:53.377Z,5140.00
2018-10-18T09:30:53.411Z,5340.00
2018-10-18T09:31:53.359Z,5416.00
2018-10-18T09:32:53.337Z,5588.00
2018-10-18T09:33:53.351Z,5688.00
2018-10-18T09:34:53.328Z,5584.00
2018-10-18T09:35:53.341Z,5360.00
2018-10-18T09:36:53.362Z,5228.00
2018-10-18T09:37:53.297Z,5040.00
2018-10-18T09:38:53.294Z,4716.00
2018-10-18T09:39:53.275Z,4472.00
2018-10-18T09:40:53.283Z,4388.00
2018-10-18T09:41:53.267Z,4440.00
2018-10-18T09:42:53.211Z,4648.00
2018-10-18T09:43:53.239Z,4924.00
2018-10-18T09:44:53.309Z,5156.00
2018-10-18T09:45:53.205Z,5496.00
2018-10-18T09:46:53.231Z,6000.00
2018-10-18T09:47:53.187Z,6380.00
2018-10-18T09:48:53.182Z,6580.00
2018-10-18T09:49:53.175Z,6776.00
2018-10-18T09:50:53.161Z,6848.00
2018-10-18T09:51:53.165Z,6872.00
2018-10-18T09:52:53.177Z,6748.00
2018-10-18T09:53:53.125Z,6580.00
2018-10-18T09:54:53.115Z,6592.00
2018-10-18T09:55:53.159Z,6588.00
2018-10-18T09:56:53.076Z,6424.00
2018-10-18T09:57:53.080Z,6128.00
2018-10-18T09:58:53.082Z,5848.00
2018-10-18T09:59:53.059Z,5652.00
2018-10-18T10:00:53.100Z,5608.00
2018-10-18T10:01:53.061Z,5756.00
2018-10-18T10:02:53.028Z,6120.00
2018-10-18T10:03:53.022Z,6672.00
2018-10-18T10:04:53.015Z,7232.00
2018-10-18T10:05:53.001Z,7876.00
2018-10-18T10:06:53.012Z,8436.00
2018-10-18T10:07:52.984Z,8844.00
2018-10-18T10:08:52.968Z,9016.00
2018-10-18T10:09:52.958Z,9160.00
2018-10-18T10:10:52.953Z,9276.00
2018-10-18T10:11:52.983Z,9180.00
2018-10-18T10:12:52.958Z,9016.00
2018-10-18T10:13:52.922Z,8908.00
2018-10-18T10:14:52.899Z,8716.00
2018-10-18T10:15:52.959Z,8752.00
2018-10-18T10:16:52.902Z,9000.00
2018-10-18T10:17:52.942Z,9204.00
2018-10-18T10:18:52.858Z,8984.00
2018-10-18T10:19:52.849Z,8560.00
2018-10-18T10:20:52.840Z,8356.00
2018-10-18T10:21:52.918Z,8412.00
2018-10-18T10:22:52.814Z,8580.00
2018-10-18T10:23:52.819Z,8744.00
2018-10-18T10:24:52.805Z,8856.00
2018-10-18T10:25:52.742Z,9004.00
2018-10-18T10:26:52.788Z,8856.00
2018-10-18T10:27:52.757Z,8568.00
2018-10-18T10:28:52.767Z,8024.00
2018-10-18T10:29:52.738Z,7408.00
2018-10-18T10:30:52.776Z,6840.00
2018-10-18T10:31:52.759Z,6288.00
2018-10-18T10:32:52.721Z,5840.00
2018-10-18T10:33:52.709Z,5624.00
2018-10-18T10:34:52.709Z,5512.00
2018-10-18T10:35:52.677Z,5372.00
2018-10-18T10:36:52.691Z,5164.00
2018-10-18T10:37:52.648Z,4916.00
2018-10-18T10:38:52.641Z,4832.00
2018-10-18T10:39:52.634Z,4748.00
2018-10-18T10:40:52.620Z,4796.00
2018-10-18T10:41:52.664Z,5204.00
2018-10-18T10:42:52.667Z,5608.00
2018-10-18T10:43:52.590Z,5920.00
2018-10-18T10:44:52.623Z,6044.00
2018-10-18T10:45:52.609Z,5980.00
2018-10-18T10:46:52.589Z,5680.00
2018-10-18T10:47:52.545Z,5332.00
2018-10-18T10:48:52.531Z,4788.00
2018-10-18T10:49:52.566Z,4152.00
2018-10-18T10:50:52.506Z,3788.00
2018-10-18T10:51:52.565Z,3556.00
2018-10-18T10:52:52.491Z,3452.00
2018-10-18T10:53:52.537Z,3580.00
2018-10-18T10:54:52.466Z,3624.00
2018-10-18T10:55:52.463Z,3652.00
2018-10-18T10:56:52.507Z,3724.00
2018-10-18T10:57:52.476Z,3800.00
2018-10-18T10:58:52.450Z,4016.00
2018-10-18T10:59:52.429Z,4228.00
2018-10-18T11:00:52.409Z,4292.00
2018-10-18T11:01:52.463Z,4296.00
2018-10-18T11:02:52.413Z,4560.00
2018-10-18T11:03:52.364Z,4772.00
2018-10-18T11:04:52.374Z,4676.00
2018-10-18T11:05:52.361Z,4816.00
2018-10-18T11:06:52.341Z,5140.00
2018-10-18T11:07:52.389Z,5344.00
2018-10-18T11:08:52.296Z,5716.00
2018-10-18T11:09:52.316Z,5596.00
2018-10-18T11:10:52.507Z,5560.00
2018-10-18T11:11:52.310Z,5636.00
2018-10-18T11:12:52.301Z,5792.00
2018-10-18T11:13:52.301Z,5824.00
2018-10-18T11:14:52.221Z,5676.00
2018-10-18T11:15:52.260Z,5568.00
2018-10-18T11:16:52.229Z,5600.00
2018-10-18T11:17:52.283Z,5240.00
2018-10-18T11:18:52.209Z,5356.00
2018-10-18T11:19:52.207Z,5516.00
2018-10-18T11:20:52.222Z,5476.00
2018-10-18T11:21:52.178Z,5508.00
2018-10-18T11:22:52.184Z,5612.00
2018-10-18T11:23:52.192Z,5504.00
2018-10-18T11:24:52.242Z,5376.00
2018-10-18T11:25:52.186Z,5552.00
2018-10-18T11:26:52.146Z,5680.00
2018-10-18T11:27:52.128Z,5852.00
2018-10-18T11:28:52.101Z,6068.00
2018-10-18T11:29:52.236Z,6436.00
2018-10-18T11:30:52.066Z,6864.00
2018-10-18T11:31:52.072Z,7464.00
2018-10-18T11:32:52.106Z,7980.00
2018-10-18T11:33:52.050Z,8356.00
2018-10-18T11:34:52.040Z,8472.00
2018-10-18T11:35:52.030Z,8500.00
2018-10-18T11:36:52.020Z,8524.00
2018-10-18T11:37:52.052Z,8488.00
2018-10-18T11:38:51.997Z,8384.00
2018-10-18T11:39:51.954Z,8224.00
2018-10-18T11:40:51.967Z,8112.00
2018-10-18T11:41:51.971Z,8104.00
2018-10-18T11:42:51.978Z,8288.00
2018-10-18T11:43:51.953Z,8624.00
2018-10-18T11:44:51.930Z,8888.00
2018-10-18T11:45:51.913Z,9132.00
2018-10-18T11:46:51.910Z,9336.00
2018-10-18T11:47:51.954Z,9392.00
2018-10-18T11:48:51.879Z,9188.00
2018-10-18T11:49:51.878Z,9016.00
2018-10-18T11:50:51.865Z,9052.00
2018-10-18T11:51:51.915Z,9236.00
2018-10-18T11:52:51.855Z,9480.00
2018-10-18T11:53:51.845Z,9652.00
2018-10-18T11:54:51.817Z,9704.00
2018-10-18T11:55:51.850Z,9732.00
2018-10-18T11:56:51.747Z,9768.00
2018-10-18T11:57:51.815Z,9768.00
2018-10-18T11:58:51.778Z,9708.00
2018-10-18T11:59:51.757Z,9668.00
2018-10-18T12:00:51.748Z,9620.00
2018-10-18T12:01:51.774Z,9528.00
2018-10-18T12:02:51.722Z,9420.00
2018-10-18T12:03:51.731Z,9392.00
2018-10-18T12:04:51.670Z,9384.00
2018-10-18T12:05:51.689Z,9228.00
2018-10-18T12:06:51.677Z,9000.00
2018-10-18T12:07:51.679Z,8852.00
2018-10-18T12:08:51.638Z,8836.00
2018-10-18T12:09:51.647Z,8804.00
2018-10-18T12:10:51.644Z,8776.00
2018-10-18T12:11:51.636Z,8752.00
2018-10-18T12:12:51.609Z,8772.00
2018-10-18T12:13:51.760Z,8676.00
2018-10-18T12:14:51.588Z,8432.00
2018-10-18T12:15:51.581Z,8276.00
2018-10-18T12:16:51.622Z,8408.00
2018-10-18T12:17:51.568Z,8596.00
2018-10-18T12:18:51.590Z,8644.00
2018-10-18T12:19:51.494Z,8496.00
2018-10-18T12:20:51.528Z,8372.00
2018-10-18T12:21:51.533Z,8404.00
2018-10-18T12:22:51.571Z,8452.00
2018-10-18T12:23:51.575Z,8392.00
2018-10-18T12:24:51.495Z,8296.00
2018-10-18T12:25:51.475Z,8356.00
2018-10-18T12:26:51.554Z,8376.00
2018-10-18T12:27:51.467Z,8228.00
2018-10-18T12:28:51.462Z,7908.00
2018-10-18T12:29:51.388Z,7632.00
2018-10-18T12:30:51.367Z,7556.00
2018-10-18T12:31:51.406Z,7660.00
2018-10-18T12:32:51.405Z,7768.00
2018-10-18T12:33:51.430Z,7844.00
2018-10-18T12:34:51.379Z,7876.00
2018-10-18T12:35:51.361Z,7876.00
2018-10-18T12:36:51.316Z,7856.00
2018-10-18T12:37:51.336Z,7840.00
2018-10-18T12:38:51.347Z,7824.00
2018-10-18T12:39:51.314Z,7780.00